Latest Weather Observations for Edinburgh

IDS60901

Issued at 4:31 pm CDT Monday 18 February 2019 (issued every 10 minutes, with the page automatically refreshed every 10 minutes)

About weather observations | Map of Adelaide area stations | Latest observations for Adelaide area | Other Formats
Station Details ID: 023083 Name: EDINBURGH RAAF Lat: -34.71 Lon: 138.62 Height: 16.54 m
Data from the previous 72 hours. | See also: Recent months at Edinburgh
Date/Time
CDT
Temp
°C
App
Temp
°C
Dew
Point
°C
Rel
Hum
%
Delta-T
°C
Wind Press
QNH
hPa
Press
MSL
hPa
Rain since
9am
mm
Dir  Spd
km/h
Gust
km/h
Spd
kts
Gust
kts
18/04:30pm 23.1 15.1 10.5 45 6.9 SW 43 59 23 32 1010.6 1010.5 0.0
18/04:24pm 23.4 15.9 10.8 45 7.0 SW 41 59 22 32 1010.5 1010.4 0.0
18/04:00pm 23.8 16.8 11.2 45 7.1 SW 39 50 21 27 1010.5 1010.4 0.0
18/03:30pm 24.8 17.9 11.7 44 7.4 SW 39 50 21 27 1010.6 1010.5 0.0
18/03:00pm 23.2 15.5 10.3 44 7.1 SW 41 54 22 29 1010.5 1010.4 0.0
18/02:30pm 23.5 16.8 10.9 45 7.0 SW 37 46 20 25 1010.5 1010.4 0.0
18/02:00pm 22.9 15.7 10.7 46 6.7 SW 39 48 21 26 1010.6 1010.5 0.0
18/01:30pm 22.9 15.9 11.3 48 6.5 SW 39 48 21 26 1010.6 1010.5 0.0
18/01:00pm 23.0 17.3 11.7 49 6.4 SW 33 43 18 23 1010.6 1010.5 0.0
18/12:30pm 23.8 18.8 12.1 48 6.7 SW 30 41 16 22 1010.7 1010.6 0.0
18/12:00pm 23.0 17.5 11.7 49 6.4 SW 32 41 17 22 1010.8 1010.7 0.0
18/11:30am 22.3 17.3 12.3 53 5.7 SW 30 37 16 20 1010.7 1010.6 0.0
18/11:00am 22.7 17.7 12.3 52 5.9 SSW 30 43 16 23 1010.5 1010.4 0.0
18/10:59am 22.7 17.2 11.7 49 6.2 SSW 32 43 17 23 1010.5 1010.4 0.0
18/10:30am 22.6 20.0 13.1 55 5.5 S 19 30 10 16 1010.4 1010.3 0.0
18/10:00am 21.6 18.1 13.5 60 4.7 SW 24 32 13 17 1010.3 1010.2 0.0
18/09:30am 20.8 17.1 12.8 60 4.5 SSW 24 32 13 17 1009.7 1009.6 0.0
18/09:00am 21.6 19.5 13.5 60 4.7 SW 17 30 9 16 1009.5 1009.4 0.0
18/08:30am 21.2 20.6 13.4 61 4.5 SSE 9 15 5 8 1009.1 1009.0 0.0
18/08:00am 20.9 19.6 13.8 64 4.1 SSW 13 17 7 9 1008.7 1008.6 0.0
18/07:30am 20.6 19.6 13.3 63 4.2 S 11 17 6 9 1008.1 1008.1 0.0
18/07:00am 20.6 19.0 14.0 66 3.8 SSE 15 20 8 11 1007.7 1007.7 0.0
18/06:30am 21.1 19.4 13.5 62 4.4 S 15 22 8 12 1007.1 1007.1 0.0
18/06:00am 21.9 20.0 13.0 57 5.1 SSE 15 20 8 11 1006.4 1006.4 0.0
18/05:30am 23.1 20.5 12.1 50 6.3 ESE 17 28 9 15 1005.7 1005.7 0.0
18/05:00am 23.1 23.5 15.2 61 4.7 SE 7 11 4 6 1005.3 1005.3 0.0
18/04:30am 22.7 22.0 15.3 63 4.4 SSW 13 15 7 8 1005.1 1005.1 0.0
18/04:00am 22.9 21.9 15.5 63 4.4 W 15 19 8 10 1005.1 1005.1 0.0
18/03:30am 23.3 22.7 14.6 58 5.2 WNW 11 17 6 9 1005.1 1005.1 0.0
18/03:00am 24.1 24.2 14.5 55 5.7 NNE 7 11 4 6 1004.8 1004.8 0.0
18/02:30am 24.6 25.9 14.1 52 6.2 CALM 0 2 0 1 1005.5 1005.5 0.0
18/02:00am 24.3 22.6 15.8 59 5.2 SW 19 22 10 12 1005.9 1005.9 0.0
18/01:30am 25.0 21.0 8.1 34 9.0 WNW 19 26 10 14 1005.9 1005.9 0.0
18/01:00am 26.1 23.4 5.7 27 10.5 S 9 13 5 7 1005.9 1005.9 0.0
18/12:30am 25.3 23.1 5.5 28 10.1 W 6 15 3 8 1006.0 1006.0 0.0
18/12:00am 25.8 23.2 4.3 25 10.8 N 7 11 4 6 1006.1 1006.1 0.0
 
Date/Time
CDT
Temp
°C
App
Temp
°C
Dew
Point
°C
Rel
Hum
%
Delta-T
°C
Wind Press
QNH
hPa
Press
MSL
hPa
Rain since
9am
mm
Dir  Spd
km/h
Gust
km/h
Spd
kts
Gust
kts
17/11:30pm 26.2 23.7 4.6 25 10.9 NE 7 11 4 6 1006.3 1006.3 0.0
17/11:00pm 26.1 24.1 6.2 28 10.3 NNE 6 11 3 6 1006.7 1006.7 0.0
17/10:30pm 26.6 24.8 5.5 26 10.9 SSE 4 7 2 4 1006.9 1006.9 0.0
17/10:00pm 27.9 26.9 7.2 27 11.0 S 2 6 1 3 1007.2 1007.2 0.0
17/09:30pm 28.6 26.1 3.5 20 12.7 WSW 6 9 3 5 1007.0 1007.0 0.0
17/09:00pm 30.1 28.3 1.5 16 14.1 CALM 0 4 0 2 1006.8 1006.8 0.0
17/08:30pm 31.2 28.0 0.6 14 14.9 S 7 11 4 6 1006.6 1006.6 0.0
17/08:00pm 31.5 28.3 0.8 14 15.0 SSE 7 11 4 6 1006.5 1006.5 0.0
17/07:30pm 32.0 28.5 1.2 14 15.3 S 9 13 5 7 1006.9 1006.9 0.0
17/07:00pm 32.6 29.0 0.6 13 15.7 S 9 13 5 7 1006.9 1006.9 0.0
17/06:30pm 32.8 29.2 0.8 13 15.8 SSW 9 13 5 7 1007.0 1007.0 0.0
17/06:00pm 32.9 29.5 1.9 14 15.6 SSW 9 13 5 7 1007.1 1007.1 0.0
17/05:30pm 33.1 28.8 1.0 13 16.0 WSW 13 17 7 9 1007.1 1007.1 0.0
17/05:00pm 34.3 28.8 0.8 12 16.7 W 19 26 10 14 1007.3 1007.3 0.0
17/04:30pm 35.9 31.0 -0.5 10 18.0 W 15 26 8 14 1007.5 1007.5 0.0
17/04:00pm 34.6 29.7 2.2 13 16.5 W 17 26 9 14 1007.8 1007.8 0.0
17/03:30pm 35.0 30.0 3.5 14 16.5 WSW 19 26 10 14 1008.0 1008.0 0.0
17/03:00pm 34.4 31.0 4.0 15 16.0 WNW 11 20 6 11 1008.5 1008.5 0.0
17/02:30pm 33.2 29.8 4.0 16 15.2 W 11 17 6 9 1009.2 1009.1 0.0
17/02:00pm 33.8 30.1 2.6 14 16.0 WNW 11 26 6 14 1009.7 1009.6 0.0
17/01:30pm 33.2 28.9 1.1 13 16.0 WNW 13 19 7 10 1010.2 1010.1 0.0
17/01:00pm 32.9 29.5 1.9 14 15.6 SSW 9 15 5 8 1010.7 1010.6 0.0
17/12:30pm 30.8 28.0 2.1 16 14.3 SSW 6 9 3 5 1011.2 1011.1 0.0
17/12:00pm 30.0 27.6 2.3 17 13.8 S 4 9 2 5 1011.9 1011.8 0.0
17/11:30am 28.6 26.3 2.7 19 12.8 SE 4 7 2 4 1012.5 1012.4 0.0
17/11:00am 27.1 24.0 3.6 22 11.7 S 9 13 5 7 1012.7 1012.6 0.0
17/10:30am 25.5 22.0 3.5 24 10.8 SSE 11 19 6 10 1012.9 1012.8 0.0
17/10:00am 23.6 19.6 5.0 30 9.3 SSW 15 17 8 9 1013.2 1013.1 0.0
17/09:30am 23.0 19.3 4.5 30 9.1 SW 13 19 7 10 1013.1 1013.0 0.0
17/09:00am 21.6 18.3 4.7 33 8.3 SW 11 15 6 8 1012.8 1012.7 0.0
17/08:30am 21.0 18.5 3.7 32 8.3 SSW 6 7 3 4 1012.7 1012.6 0.0
17/08:00am 19.9 17.5 2.3 31 8.1 E 4 9 2 5 1012.6 1012.5 0.0
17/07:30am 18.4 15.3 1.4 32 7.6 E 7 9 4 5 1012.4 1012.3 0.0
17/07:00am 15.4 12.7 3.5 45 5.4 NNE 7 9 4 5 1012.5 1012.4 0.0
17/06:30am 16.1 12.8 4.8 47 5.3 NE 11 11 6 6 1012.2 1012.1 0.0
17/06:00am 15.8 13.3 4.5 47 5.3 NNE 7 11 4 6 1012.3 1012.2 0.0
17/05:30am 16.8 14.7 5.7 48 5.4 NE 6 9 3 5 1012.0 1011.9 0.0
17/05:00am 16.5 14.2 5.8 49 5.2 NE 7 9 4 5 1012.1 1012.0 0.0
17/04:30am 17.1 14.4 5.7 47 5.5 NE 9 11 5 6 1011.9 1011.8 0.0
17/04:00am 16.8 14.6 5.4 47 5.5 NE 6 9 3 5 1012.3 1012.2 0.0
17/03:30am 17.9 14.9 5.8 45 5.9 NE 11 13 6 7 1012.7 1012.6 0.0
17/03:00am 18.1 15.8 5.0 42 6.3 NNE 6 11 3 6 1013.1 1013.0 0.0
17/02:30am 18.4 16.2 5.3 42 6.4 NE 6 7 3 4 1013.1 1013.0 0.0
17/02:00am 19.3 17.1 5.4 40 6.8 NE 6 7 3 4 1013.3 1013.2 0.0
17/01:30am 18.2 15.6 4.4 40 6.6 NE 7 11 4 6 1013.7 1013.6 0.0
17/01:00am 19.3 17.3 2.2 32 7.8 WSW 2 7 1 4 1014.1 1014.0 0.0
17/12:30am 20.1 18.6 2.9 32 8.1 CALM 0 0 0 0 1014.5 1014.4 0.0
17/12:00am 19.6 16.8 3.3 34 7.7 WSW 7 7 4 4 1014.8 1014.7 0.0
 
Date/Time
CDT
Temp
°C
App
Temp
°C
Dew
Point
°C
Rel
Hum
%
Delta-T
°C
Wind Press
QNH
hPa
Press
MSL
hPa
Rain since
9am
mm
Dir  Spd
km/h
Gust
km/h
Spd
kts
Gust
kts
16/11:30pm 20.4 18.2 3.2 32 8.1 N 4 7 2 4 1014.9 1014.8 0.0
16/11:00pm 20.3 17.3 1.7 29 8.5 WNW 7 9 4 5 1015.1 1015.0 0.0
16/10:30pm 21.0 18.1 1.3 27 9.0 NNW 6 7 3 4 1015.1 1015.0 0.0
16/10:00pm 23.2 20.2 0.9 23 10.3 E 6 7 3 4 1015.1 1015.0 0.0
16/09:30pm 24.3 21.1 0.6 21 11.0 S 7 7 4 4 1015.0 1014.9 0.0
16/09:00pm 24.0 21.1 1.6 23 10.5 SW 6 7 3 4 1014.9 1014.8 0.0
16/08:30pm 24.8 21.3 1.0 21 11.1 S 9 11 5 6 1014.7 1014.6 0.0
16/08:00pm 25.5 20.9 3.5 24 10.8 SSW 17 24 9 13 1014.5 1014.4 0.0
16/07:30pm 26.9 21.8 4.0 23 11.5 SSW 20 24 11 13 1014.4 1014.3 0.0
16/07:00pm 27.7 21.3 3.4 21 12.1 SW 26 32 14 17 1014.2 1014.1 0.0
16/06:30pm 28.5 22.8 2.7 19 12.8 SW 22 28 12 15 1014.1 1014.0 0.0
16/06:00pm 29.7 23.0 1.2 16 13.9 SW 26 32 14 17 1014.2 1014.1 0.0
16/05:30pm 29.9 24.3 1.4 16 13.9 SW 20 32 11 17 1014.2 1014.1 0.0
16/05:00pm 30.3 24.8 1.7 16 14.1 SW 20 26 11 14 1014.3 1014.2 0.0
16/04:30pm 30.2 24.8 2.5 17 13.8 SW 20 26 11 14 1014.5 1014.4 0.0
16/04:00pm 30.6 25.8 4.4 19 13.5 SW 19 24 10 13 1014.8 1014.7 0.0
16/03:30pm 29.9 24.9 6.5 23 12.5 SW 22 30 12 16 1015.2 1015.1 0.0
16/03:00pm 30.3 25.5 5.6 21 13.0 WSW 20 28 11 15 1015.5 1015.4 0.0
16/02:30pm 29.7 25.1 6.4 23 12.4 SW 20 30 11 16 1016.0 1015.9 0.0
16/02:00pm 30.0 25.0 4.6 20 13.1 WSW 20 28 11 15 1016.4 1016.3 0.0
16/01:30pm 29.5 25.8 6.2 23 12.3 WSW 15 22 8 12 1016.6 1016.5 0.0
16/01:00pm 29.3 25.9 6.0 23 12.3 SW 13 24 7 13 1017.0 1016.9 0.0
16/12:30pm 28.4 25.4 7.6 27 11.2 SSW 13 20 7 11 1017.5 1017.4 0.0
16/12:00pm 28.4 26.1 7.6 27 11.2 WSW 9 15 5 8 1018.0 1017.9 0.0
16/11:30am 27.3 24.8 6.7 27 10.8 WNW 9 15 5 8 1018.5 1018.4 0.0
16/11:00am 26.4 24.5 6.9 29 10.3 SSW 6 11 3 6 1018.7 1018.6 0.0
16/10:30am 25.0 22.0 6.2 30 9.7 SW 11 13 6 7 1018.8 1018.7 0.0
16/10:00am 24.1 21.8 5.9 31 9.3 SSW 7 11 4 6 1019.0 1018.9 0.0
16/09:30am 22.7 20.5 6.0 34 8.4 SSE 7 11 4 6 1018.8 1018.7 0.0
16/09:00am 21.3 18.8 6.4 38 7.5 SSE 9 11 5 6 1019.0 1018.9 0.0
16/08:30am 19.6 17.7 7.7 46 6.1 SSE 7 11 4 6 1019.1 1019.0 0.0
16/08:00am 17.7 16.9 8.3 54 4.8 SSE 2 6 1 3 1019.0 1018.9 0.0
16/07:30am 15.9 15.5 8.2 60 3.9 CALM 0 0 0 0 1018.7 1018.6 0.0
16/07:00am 14.5 14.1 8.2 66 3.2 CALM 0 6 0 3 1018.1 1018.0 0.0
16/06:30am 14.1 13.5 7.4 64 3.3 CALM 0 0 0 0 1018.1 1018.0 0.0
16/06:00am 14.7 14.1 7.5 62 3.6 CALM 0 4 0 2 1017.5 1017.4 0.0
16/05:30am 16.0 13.8 7.7 58 4.1 NNE 9 11 5 6 1017.5 1017.4 0.0
16/05:00am 16.2 13.6 7.7 57 4.3 NNE 11 13 6 7 1017.7 1017.6 0.0
16/04:30am 16.5 15.0 9.0 61 3.9 NE 7 9 4 5 1017.9 1017.8 0.0
16/04:00am 16.0 14.8 9.4 65 3.4 NNE 6 7 3 4 1018.5 1018.4 0.0
16/03:30am 16.5 15.3 9.4 63 3.7 NE 6 7 3 4 1018.7 1018.6 0.0
16/03:00am 16.0 14.6 9.4 65 3.4 N 7 7 4 4 1018.9 1018.8 0.0
16/02:30am 17.0 16.2 9.7 62 3.8 SE 4 7 2 4 1019.2 1019.1 0.0
16/02:00am 16.7 15.8 9.1 61 3.9 SW 4 6 2 3 1019.4 1019.3 0.0
16/01:30am 17.8 17.7 9.4 58 4.4 CALM 0 4 0 2 1019.5 1019.4 0.0
16/01:00am 17.5 16.1 8.9 57 4.5 WNW 6 7 3 4 1019.7 1019.6 0.0
16/12:30am 19.9 18.7 9.5 51 5.5 SE 6 9 3 5 1019.7 1019.6 0.0
16/12:00am 20.2 18.1 9.7 51 5.6 ESE 11 15 6 8 1019.9 1019.8 0.0
 
Date/Time
CDT
Temp
°C
App
Temp
°C
Dew
Point
°C
Rel
Hum
%
Delta-T
°C
Wind Press
QNH
hPa
Press
MSL
hPa
Rain since
9am
mm
Dir  Spd
km/h
Gust
km/h
Spd
kts
Gust
kts
15/11:30pm 20.3 18.7 10.1 52 5.5 SSE 9 13 5 7 1020.1 1020.0 0.0
15/11:00pm 20.8 19.8 10.9 53 5.4 SSE 7 9 4 5 1020.3 1020.2 0.0
15/10:30pm 21.3 20.3 11.1 52 5.6 SSE 7 9 4 5 1020.5 1020.4 0.0
15/10:00pm 21.9 20.6 11.3 51 5.9 SE 9 13 5 7 1020.2 1020.1 0.0
15/09:30pm 22.8 20.8 11.5 49 6.3 ESE 13 19 7 10 1019.9 1019.8 0.0
15/09:00pm 24.2 22.5 11.2 44 7.3 ESE 11 17 6 9 1019.4 1019.3 0.0
15/08:30pm 24.1 21.1 9.3 39 8.0 SSW 15 19 8 10 1019.0 1018.9 0.0
15/08:00pm 25.0 20.4 5.7 29 9.9 SSW 19 24 10 13 1018.8 1018.7 0.0
15/07:30pm 26.1 20.7 4.6 25 10.8 SSW 22 28 12 15 1018.6 1018.5 0.0
15/07:00pm 27.1 21.4 4.8 24 11.4 SW 24 30 13 16 1018.3 1018.2 0.0
15/06:30pm 28.1 22.3 4.4 22 12.0 SSW 24 30 13 16 1018.4 1018.3 0.0
15/06:00pm 28.1 22.4 5.0 23 11.9 SSW 24 33 13 18 1018.6 1018.5 0.0
15/05:30pm 28.6 22.4 4.2 21 12.4 SSW 26 33 14 18 1018.7 1018.6 0.0
15/05:00pm 28.7 22.6 4.9 22 12.3 SW 26 32 14 17 1018.7 1018.6 0.0

Latest Capital City Observations: Canberra | Sydney | Melbourne | Brisbane | Adelaide | Perth | Hobart | Darwin

Other formats

Comma delimited format used in spreadsheet applications
http://www.bom.gov.au/fwo/IDS60901/IDS60901.95676.axf

JavaScript Object Notation format (JSON) in row-major order
http://www.bom.gov.au/fwo/IDS60901/IDS60901.95676.json

Data quality

Most of these data are generated automatically and are frequently updated. Quality checks on data are not normally performed. It is possible for incorrect values to appear. Refer to information at About Latest Weather Observations and please check the disclaimer before using these data.